sensor_id;sensor_type;location;lat;lon;timestamp;pressure;altitude;pressure_sealevel;temperature;humidity
29467;BME280;60968;37.490;-122.288;2022-08-01T00:01:40;98716.50;;;21.95;62.30
29467;BME280;60968;37.490;-122.288;2022-08-01T00:04:41;98714.66;;;21.55;63.10
29467;BME280;60968;37.490;-122.288;2022-08-01T00:07:42;98721.66;;;21.27;64.74
29467;BME280;60968;37.490;-122.288;2022-08-01T00:10:43;98704.69;;;21.44;64.11
29467;BME280;60968;37.490;-122.288;2022-08-01T00:13:44;98708.19;;;21.45;63.81
29467;BME280;60968;37.490;-122.288;2022-08-01T00:16:45;98705.16;;;21.51;63.95
29467;BME280;60968;37.490;-122.288;2022-08-01T00:19:46;98712.44;;;21.47;64.00
29467;BME280;60968;37.490;-122.288;2022-08-01T00:22:46;98715.75;;;21.65;63.41
29467;BME280;60968;37.490;-122.288;2022-08-01T00:25:47;98714.09;;;21.77;63.38
29467;BME280;60968;37.490;-122.288;2022-08-01T00:28:48;98716.91;;;21.88;62.71
29467;BME280;60968;37.490;-122.288;2022-08-01T00:31:49;98712.22;;;21.79;62.86
29467;BME280;60968;37.490;-122.288;2022-08-01T00:34:50;98707.81;;;21.51;63.67
29467;BME280;60968;37.490;-122.288;2022-08-01T00:37:51;98696.63;;;21.60;63.56
29467;BME280;60968;37.490;-122.288;2022-08-01T00:40:51;98710.88;;;21.30;63.83
29467;BME280;60968;37.490;-122.288;2022-08-01T00:43:52;98700.88;;;21.21;64.19
29467;BME280;60968;37.490;-122.288;2022-08-01T00:46:53;98698.22;;;21.21;64.42
29467;BME280;60968;37.490;-122.288;2022-08-01T00:49:54;98700.47;;;20.98;65.18
29467;BME280;60968;37.490;-122.288;2022-08-01T00:52:55;98705.31;;;20.92;65.47
29467;BME280;60968;37.490;-122.288;2022-08-01T00:55:58;98697.84;;;20.84;65.57
29467;BME280;60968;37.490;-122.288;2022-08-01T00:58:59;98698.34;;;20.60;65.88
29467;BME280;60968;37.490;-122.288;2022-08-01T01:02:00;98701.41;;;20.68;66.31
29467;BME280;60968;37.490;-122.288;2022-08-01T01:05:01;98701.47;;;20.67;66.19
29467;BME280;60968;37.490;-122.288;2022-08-01T01:08:03;98712.25;;;20.64;65.98
29467;BME280;60968;37.490;-122.288;2022-08-01T01:11:13;98700.28;;;20.72;65.85
29467;BME280;60968;37.490;-122.288;2022-08-01T01:14:27;98698.41;;;21.03;65.04
29467;BME280;60968;37.490;-122.288;2022-08-01T01:17:57;98703.13;;;21.13;64.11
29467;BME280;60968;37.490;-122.288;2022-08-01T01:24:24;98703.59;;;21.34;64.06
29467;BME280;60968;37.490;-122.288;2022-08-01T01:27:47;98695.91;;;21.44;63.28
29467;BME280;60968;37.490;-122.288;2022-08-01T01:30:51;98697.78;;;21.41;63.32
29467;BME280;60968;37.490;-122.288;2022-08-01T01:33:55;98694.75;;;21.33;63.44
29467;BME280;60968;37.490;-122.288;2022-08-01T01:36:59;98692.69;;;21.38;63.34
29467;BME280;60968;37.490;-122.288;2022-08-01T01:40:03;98695.31;;;21.53;63.12
29467;BME280;60968;37.490;-122.288;2022-08-01T01:43:09;98693.88;;;21.62;63.03
29467;BME280;60968;37.490;-122.288;2022-08-01T01:46:11;98691.63;;;21.55;62.93
29467;BME280;60968;37.490;-122.288;2022-08-01T01:49:14;98694.38;;;21.54;63.05
29467;BME280;60968;37.490;-122.288;2022-08-01T01:52:17;98695.91;;;21.29;63.72
29467;BME280;60968;37.490;-122.288;2022-08-01T01:55:21;98693.47;;;21.12;63.89
29467;BME280;60968;37.490;-122.288;2022-08-01T01:58:24;98706.94;;;20.94;64.94
29467;BME280;60968;37.490;-122.288;2022-08-01T02:01:29;98712.13;;;20.96;65.21
29467;BME280;60968;37.490;-122.288;2022-08-01T02:04:32;98709.94;;;20.88;64.88
29467;BME280;60968;37.490;-122.288;2022-08-01T02:07:37;98712.34;;;20.62;65.70
29467;BME280;60968;37.490;-122.288;2022-08-01T02:10:39;98717.25;;;20.54;65.53
29467;BME280;60968;37.490;-122.288;2022-08-01T02:13:41;98718.19;;;20.53;65.73
29467;BME280;60968;37.490;-122.288;2022-08-01T02:16:47;98721.56;;;20.40;65.98
29467;BME280;60968;37.490;-122.288;2022-08-01T02:19:48;98724.16;;;20.42;66.23
29467;BME280;60968;37.490;-122.288;2022-08-01T02:23:10;98717.84;;;20.29;66.57
29467;BME280;60968;37.490;-122.288;2022-08-01T02:26:14;98720.50;;;20.29;66.58
29467;BME280;60968;37.490;-122.288;2022-08-01T02:29:22;98716.22;;;20.12;67.40
29467;BME280;60968;37.490;-122.288;2022-08-01T02:32:46;98717.69;;;20.01;67.77
29467;BME280;60968;37.490;-122.288;2022-08-01T02:35:50;98719.91;;;19.93;68.29
29467;BME280;60968;37.490;-122.288;2022-08-01T02:38:54;98725.03;;;19.96;68.65
29467;BME280;60968;37.490;-122.288;2022-08-01T02:41:59;98721.34;;;19.83;69.05
29467;BME280;60968;37.490;-122.288;2022-08-01T02:45:02;98716.66;;;19.88;68.89
29467;BME280;60968;37.490;-122.288;2022-08-01T02:48:10;98713.84;;;19.75;69.91
29467;BME280;60968;37.490;-122.288;2022-08-01T02:51:12;98711.56;;;19.69;70.04
29467;BME280;60968;37.490;-122.288;2022-08-01T02:54:16;98719.03;;;19.77;69.70
29467;BME280;60968;37.490;-122.288;2022-08-01T02:57:18;98722.22;;;19.51;69.62
29467;BME280;60968;37.490;-122.288;2022-08-01T03:00:21;98730.47;;;19.45;69.85
29467;BME280;60968;37.490;-122.288;2022-08-01T03:03:22;98719.41;;;19.39;70.24
29467;BME280;60968;37.490;-122.288;2022-08-01T03:06:24;98730.53;;;19.28;70.05
29467;BME280;60968;37.490;-122.288;2022-08-01T03:09:27;98726.97;;;19.13;70.29
29467;BME280;60968;37.490;-122.288;2022-08-01T03:12:33;98724.53;;;18.92;71.40
29467;BME280;60968;37.490;-122.288;2022-08-01T03:15:37;98736.84;;;18.74;72.09
29467;BME280;60968;37.490;-122.288;2022-08-01T03:18:40;98732.66;;;18.70;72.46
29467;BME280;60968;37.490;-122.288;2022-08-01T03:21:43;98743.31;;;18.68;72.13
29467;BME280;60968;37.490;-122.288;2022-08-01T03:24:48;98732.59;;;18.72;71.91
29467;BME280;60968;37.490;-122.288;2022-08-01T03:27:55;98741.47;;;18.71;72.09
29467;BME280;60968;37.490;-122.288;2022-08-01T03:30:58;98745.31;;;18.63;71.87
29467;BME280;60968;37.490;-122.288;2022-08-01T03:33:59;98751.72;;;18.42;72.21
29467;BME280;60968;37.490;-122.288;2022-08-01T03:37:16;98746.03;;;18.32;73.23
29467;BME280;60968;37.490;-122.288;2022-08-01T03:40:31;98759.78;;;18.39;73.27
29467;BME280;60968;37.490;-122.288;2022-08-01T03:43:41;98754.66;;;18.36;73.77
29467;BME280;60968;37.490;-122.288;2022-08-01T03:46:54;98756.31;;;18.38;74.63
29467;BME280;60968;37.490;-122.288;2022-08-01T03:49:57;98757.44;;;18.50;74.27
29467;BME280;60968;37.490;-122.288;2022-08-01T03:52:59;98767.22;;;18.65;74.48
29467;BME280;60968;37.490;-122.288;2022-08-01T03:56:02;98762.56;;;18.71;74.54
29467;BME280;60968;37.490;-122.288;2022-08-01T03:59:05;98758.31;;;18.68;74.66
29467;BME280;60968;37.490;-122.288;2022-08-01T04:02:06;98758.47;;;18.65;74.57
29467;BME280;60968;37.490;-122.288;2022-08-01T04:05:08;98773.25;;;18.67;75.00
29467;BME280;60968;37.490;-122.288;2022-08-01T04:08:09;98778.25;;;18.74;75.26
29467;BME280;60968;37.490;-122.288;2022-08-01T04:11:10;98779.00;;;18.76;75.38
29467;BME280;60968;37.490;-122.288;2022-08-01T04:14:10;98772.81;;;18.77;75.16
29467;BME280;60968;37.490;-122.288;2022-08-01T04:17:11;98766.69;;;18.76;75.16
29467;BME280;60968;37.490;-122.288;2022-08-01T04:20:13;98773.13;;;18.71;75.37
29467;BME280;60968;37.490;-122.288;2022-08-01T04:23:17;98783.53;;;18.74;75.30
29467;BME280;60968;37.490;-122.288;2022-08-01T04:26:20;98789.81;;;18.71;74.80
29467;BME280;60968;37.490;-122.288;2022-08-01T04:29:22;98799.34;;;18.56;75.04
29467;BME280;60968;37.490;-122.288;2022-08-01T04:32:25;98799.03;;;18.45;75.69
29467;BME280;60968;37.490;-122.288;2022-08-01T04:35:29;98807.69;;;18.29;76.07
29467;BME280;60968;37.490;-122.288;2022-08-01T04:38:33;98810.56;;;18.25;76.55
29467;BME280;60968;37.490;-122.288;2022-08-01T04:41:34;98814.66;;;18.13;77.47
29467;BME280;60968;37.490;-122.288;2022-08-01T04:44:37;98813.53;;;17.99;77.48
29467;BME280;60968;37.490;-122.288;2022-08-01T04:47:39;98813.09;;;17.90;77.83
29467;BME280;60968;37.490;-122.288;2022-08-01T04:50:41;98813.22;;;17.87;78.04
29467;BME280;60968;37.490;-122.288;2022-08-01T04:53:43;98822.13;;;17.84;78.47
29467;BME280;60968;37.490;-122.288;2022-08-01T04:56:44;98828.84;;;17.72;79.39
29467;BME280;60968;37.490;-122.288;2022-08-01T04:59:45;98829.03;;;17.67;80.51
29467;BME280;60968;37.490;-122.288;2022-08-01T05:02:47;98841.59;;;17.62;81.35
29467;BME280;60968;37.490;-122.288;2022-08-01T05:05:48;98840.63;;;17.63;80.98
29467;BME280;60968;37.490;-122.288;2022-08-01T05:08:48;98840.16;;;17.55;81.35
29467;BME280;60968;37.490;-122.288;2022-08-01T05:11:49;98843.19;;;17.46;82.42
29467;BME280;60968;37.490;-122.288;2022-08-01T05:14:50;98845.38;;;17.36;83.38
29467;BME280;60968;37.490;-122.288;2022-08-01T05:17:51;98843.75;;;17.34;82.91
29467;BME280;60968;37.490;-122.288;2022-08-01T05:20:52;98843.22;;;17.25;83.20
29467;BME280;60968;37.490;-122.288;2022-08-01T05:23:53;98840.59;;;17.25;83.26
29467;BME280;60968;37.490;-122.288;2022-08-01T05:26:57;98841.66;;;17.21;84.11
29467;BME280;60968;37.490;-122.288;2022-08-01T05:29:58;98838.25;;;17.19;84.92
29467;BME280;60968;37.490;-122.288;2022-08-01T05:32:59;98841.25;;;17.10;86.44
29467;BME280;60968;37.490;-122.288;2022-08-01T05:36:00;98837.03;;;17.06;87.45
29467;BME280;60968;37.490;-122.288;2022-08-01T05:39:00;98839.50;;;17.10;87.95
29467;BME280;60968;37.490;-122.288;2022-08-01T05:42:01;98841.94;;;17.15;87.65
29467;BME280;60968;37.490;-122.288;2022-08-01T05:45:03;98851.69;;;17.13;87.64
29467;BME280;60968;37.490;-122.288;2022-08-01T05:48:04;98863.00;;;17.15;87.44
29467;BME280;60968;37.490;-122.288;2022-08-01T05:51:05;98865.63;;;17.15;87.25
29467;BME280;60968;37.490;-122.288;2022-08-01T05:54:06;98866.94;;;17.05;87.35
29467;BME280;60968;37.490;-122.288;2022-08-01T05:57:06;98866.00;;;17.06;86.54
29467;BME280;60968;37.490;-122.288;2022-08-01T06:00:08;98869.41;;;16.87;86.97
29467;BME280;60968;37.490;-122.288;2022-08-01T06:03:09;98878.34;;;16.83;85.80
29467;BME280;60968;37.490;-122.288;2022-08-01T06:06:10;98880.69;;;16.69;85.76
29467;BME280;60968;37.490;-122.288;2022-08-01T06:09:11;98879.09;;;16.64;86.23
29467;BME280;60968;37.490;-122.288;2022-08-01T06:12:11;98875.09;;;16.56;86.96
29467;BME280;60968;37.490;-122.288;2022-08-01T06:15:12;98869.22;;;16.49;88.39
29467;BME280;60968;37.490;-122.288;2022-08-01T06:18:14;98869.22;;;16.49;88.45
29467;BME280;60968;37.490;-122.288;2022-08-01T06:21:15;98871.22;;;16.42;88.65
29467;BME280;60968;37.490;-122.288;2022-08-01T06:24:16;98864.34;;;16.40;88.67
29467;BME280;60968;37.490;-122.288;2022-08-01T06:27:16;98869.53;;;16.41;89.10
29467;BME280;60968;37.490;-122.288;2022-08-01T06:30:18;98866.78;;;16.44;89.14
29467;BME280;60968;37.490;-122.288;2022-08-01T06:33:19;98862.63;;;16.39;89.69
29467;BME280;60968;37.490;-122.288;2022-08-01T06:36:19;98864.69;;;16.31;90.66
29467;BME280;60968;37.490;-122.288;2022-08-01T06:39:20;98863.88;;;16.28;90.81
29467;BME280;60968;37.490;-122.288;2022-08-01T06:42:21;98850.75;;;16.28;90.53
29467;BME280;60968;37.490;-122.288;2022-08-01T06:45:22;98856.56;;;16.37;90.28
29467;BME280;60968;37.490;-122.288;2022-08-01T06:48:23;98854.59;;;16.42;89.64
29467;BME280;60968;37.490;-122.288;2022-08-01T06:51:24;98858.16;;;16.19;91.42
29467;BME280;60968;37.490;-122.288;2022-08-01T06:54:24;98856.84;;;16.07;91.49
29467;BME280;60968;37.490;-122.288;2022-08-01T06:57:25;98853.94;;;16.15;91.09
29467;BME280;60968;37.490;-122.288;2022-08-01T07:00:27;98856.00;;;16.06;91.51
29467;BME280;60968;37.490;-122.288;2022-08-01T07:03:27;98866.34;;;16.11;91.42
29467;BME280;60968;37.490;-122.288;2022-08-01T07:06:29;98860.41;;;16.06;91.31
29467;BME280;60968;37.490;-122.288;2022-08-01T07:09:30;98853.59;;;16.00;92.06
29467;BME280;60968;37.490;-122.288;2022-08-01T07:12:31;98854.53;;;15.99;92.85
29467;BME280;60968;37.490;-122.288;2022-08-01T07:15:32;98848.34;;;16.00;93.32
29467;BME280;60968;37.490;-122.288;2022-08-01T07:18:32;98846.59;;;16.01;93.18
29467;BME280;60968;37.490;-122.288;2022-08-01T07:21:33;98835.16;;;16.02;92.83
29467;BME280;60968;37.490;-122.288;2022-08-01T07:24:34;98832.03;;;15.92;93.82
29467;BME280;60968;37.490;-122.288;2022-08-01T07:27:36;98830.75;;;15.80;94.79
29467;BME280;60968;37.490;-122.288;2022-08-01T07:30:37;98825.75;;;15.72;94.89
29467;BME280;60968;37.490;-122.288;2022-08-01T07:33:37;98825.00;;;15.69;95.41
29467;BME280;60968;37.490;-122.288;2022-08-01T07:36:38;98815.59;;;15.63;96.03
29467;BME280;60968;37.490;-122.288;2022-08-01T07:39:39;98825.84;;;15.69;95.80
29467;BME280;60968;37.490;-122.288;2022-08-01T07:42:40;98815.47;;;15.66;96.39
29467;BME280;60968;37.490;-122.288;2022-08-01T07:45:41;98814.78;;;15.61;96.64
29467;BME280;60968;37.490;-122.288;2022-08-01T07:48:42;98809.06;;;15.51;98.35
29467;BME280;60968;37.490;-122.288;2022-08-01T07:51:43;98806.38;;;15.53;98.43
29467;BME280;60968;37.490;-122.288;2022-08-01T07:54:44;98802.59;;;15.60;98.22
29467;BME280;60968;37.490;-122.288;2022-08-01T07:57:44;98804.84;;;15.69;98.00
29467;BME280;60968;37.490;-122.288;2022-08-01T08:00:45;98810.97;;;15.70;98.11
29467;BME280;60968;37.490;-122.288;2022-08-01T08:03:46;98808.88;;;15.80;97.66
29467;BME280;60968;37.490;-122.288;2022-08-01T08:06:47;98810.28;;;15.88;95.99
29467;BME280;60968;37.490;-122.288;2022-08-01T08:09:47;98803.88;;;15.95;95.55
29467;BME280;60968;37.490;-122.288;2022-08-01T08:12:48;98800.16;;;16.01;94.84
29467;BME280;60968;37.490;-122.288;2022-08-01T08:15:49;98802.72;;;16.03;94.86
29467;BME280;60968;37.490;-122.288;2022-08-01T08:18:50;98797.84;;;15.93;94.91
29467;BME280;60968;37.490;-122.288;2022-08-01T08:21:51;98796.69;;;15.77;95.15
29467;BME280;60968;37.490;-122.288;2022-08-01T08:24:51;98802.06;;;15.74;95.48
29467;BME280;60968;37.490;-122.288;2022-08-01T08:27:52;98809.25;;;15.69;95.37
29467;BME280;60968;37.490;-122.288;2022-08-01T08:30:53;98806.25;;;15.56;95.24
29467;BME280;60968;37.490;-122.288;2022-08-01T08:33:54;98804.59;;;15.53;95.18
29467;BME280;60968;37.490;-122.288;2022-08-01T08:36:55;98810.00;;;15.49;94.77
29467;BME280;60968;37.490;-122.288;2022-08-01T08:39:56;98807.84;;;15.36;95.12
29467;BME280;60968;37.490;-122.288;2022-08-01T08:42:59;98802.59;;;15.36;95.89
29467;BME280;60968;37.490;-122.288;2022-08-01T08:46:02;98813.47;;;15.49;96.10
29467;BME280;60968;37.490;-122.288;2022-08-01T08:49:03;98807.91;;;15.58;95.14
29467;BME280;60968;37.490;-122.288;2022-08-01T08:52:04;98807.78;;;15.61;95.12
29467;BME280;60968;37.490;-122.288;2022-08-01T08:55:06;98810.59;;;15.57;95.29
29467;BME280;60968;37.490;-122.288;2022-08-01T08:58:12;98807.03;;;15.58;95.04
29467;BME280;60968;37.490;-122.288;2022-08-01T09:01:13;98812.25;;;15.36;96.35
29467;BME280;60968;37.490;-122.288;2022-08-01T09:04:14;98809.75;;;15.31;96.64
29467;BME280;60968;37.490;-122.288;2022-08-01T09:07:15;98810.09;;;15.46;95.91
29467;BME280;60968;37.490;-122.288;2022-08-01T09:10:16;98802.91;;;15.51;95.24
29467;BME280;60968;37.490;-122.288;2022-08-01T09:13:17;98808.88;;;15.56;94.77
29467;BME280;60968;37.490;-122.288;2022-08-01T09:16:18;98815.03;;;15.55;94.94
29467;BME280;60968;37.490;-122.288;2022-08-01T09:19:19;98815.22;;;15.50;94.69
29467;BME280;60968;37.490;-122.288;2022-08-01T09:22:22;98812.53;;;15.52;94.88
29467;BME280;60968;37.490;-122.288;2022-08-01T09:25:24;98828.72;;;15.63;94.02
29467;BME280;60968;37.490;-122.288;2022-08-01T09:28:29;98833.34;;;15.56;94.34
29467;BME280;60968;37.490;-122.288;2022-08-01T09:31:40;98843.91;;;15.55;94.30
29467;BME280;60968;37.490;-122.288;2022-08-01T09:34:41;98841.59;;;15.46;94.79
29467;BME280;60968;37.490;-122.288;2022-08-01T09:37:41;98842.41;;;15.24;96.34
29467;BME280;60968;37.490;-122.288;2022-08-01T09:40:53;98839.56;;;15.30;96.18
29467;BME280;60968;37.490;-122.288;2022-08-01T09:43:54;98836.97;;;15.29;96.46
29467;BME280;60968;37.490;-122.288;2022-08-01T09:46:55;98840.19;;;15.37;96.10
29467;BME280;60968;37.490;-122.288;2022-08-01T09:49:57;98837.63;;;15.35;95.86
29467;BME280;60968;37.490;-122.288;2022-08-01T09:52:58;98842.94;;;15.34;96.33
29467;BME280;60968;37.490;-122.288;2022-08-01T09:56:09;98846.25;;;15.39;96.12
29467;BME280;60968;37.490;-122.288;2022-08-01T09:59:10;98845.56;;;15.34;96.38
29467;BME280;60968;37.490;-122.288;2022-08-01T10:02:13;98843.31;;;15.23;95.99
29467;BME280;60968;37.490;-122.288;2022-08-01T10:05:15;98849.31;;;15.26;95.71
29467;BME280;60968;37.490;-122.288;2022-08-01T10:08:16;98849.19;;;15.30;94.73
29467;BME280;60968;37.490;-122.288;2022-08-01T10:11:17;98842.75;;;15.15;95.07
29467;BME280;60968;37.490;-122.288;2022-08-01T10:14:18;98848.66;;;14.95;96.00
29467;BME280;60968;37.490;-122.288;2022-08-01T10:17:20;98859.69;;;14.79;97.28
29467;BME280;60968;37.490;-122.288;2022-08-01T10:20:24;98859.75;;;14.78;98.00
29467;BME280;60968;37.490;-122.288;2022-08-01T10:23:26;98859.59;;;14.82;97.89
29467;BME280;60968;37.490;-122.288;2022-08-01T10:26:30;98855.03;;;14.87;99.02
29467;BME280;60968;37.490;-122.288;2022-08-01T10:29:40;98848.66;;;14.95;99.11
29467;BME280;60968;37.490;-122.288;2022-08-01T10:32:41;98842.47;;;14.97;99.09
29467;BME280;60968;37.490;-122.288;2022-08-01T10:35:45;98848.41;;;15.02;98.87
29467;BME280;60968;37.490;-122.288;2022-08-01T10:38:46;98844.38;;;14.92;99.26
29467;BME280;60968;37.490;-122.288;2022-08-01T10:41:48;98836.75;;;14.86;99.71
29467;BME280;60968;37.490;-122.288;2022-08-01T10:44:49;98831.66;;;14.81;99.97
29467;BME280;60968;37.490;-122.288;2022-08-01T10:51:09;98829.16;;;14.78;100.00
29467;BME280;60968;37.490;-122.288;2022-08-01T10:54:12;98841.03;;;14.88;100.00
29467;BME280;60968;37.490;-122.288;2022-08-01T10:57:13;98846.06;;;14.95;100.00
29467;BME280;60968;37.490;-122.288;2022-08-01T11:00:19;98839.91;;;14.96;100.00
29467;BME280;60968;37.490;-122.288;2022-08-01T11:03:32;98825.00;;;14.96;100.00
29467;BME280;60968;37.490;-122.288;2022-08-01T11:06:36;98833.94;;;14.90;100.00
29467;BME280;60968;37.490;-122.288;2022-08-01T11:09:42;98831.25;;;14.94;100.00
29467;BME280;60968;37.490;-122.288;2022-08-01T11:12:43;98834.44;;;15.02;100.00
29467;BME280;60968;37.490;-122.288;2022-08-01T11:15:44;98835.06;;;15.08;100.00
29467;BME280;60968;37.490;-122.288;2022-08-01T11:18:51;98843.31;;;14.98;100.00
29467;BME280;60968;37.490;-122.288;2022-08-01T11:24:56;98856.06;;;15.08;100.00
29467;BME280;60968;37.490;-122.288;2022-08-01T11:34:16;98863.75;;;14.88;100.00
29467;BME280;60968;37.490;-122.288;2022-08-01T11:37:28;98868.28;;;14.84;100.00
29467;BME280;60968;37.490;-122.288;2022-08-01T11:40:29;98863.25;;;14.77;100.00
29467;BME280;60968;37.490;-122.288;2022-08-01T11:43:30;98870.63;;;14.65;100.00
29467;BME280;60968;37.490;-122.288;2022-08-01T11:46:54;98867.16;;;14.65;100.00
29467;BME280;60968;37.490;-122.288;2022-08-01T11:49:55;98861.13;;;14.61;100.00
29467;BME280;60968;37.490;-122.288;2022-08-01T11:53:00;98865.31;;;14.68;100.00
29467;BME280;60968;37.490;-122.288;2022-08-01T11:56:01;98870.59;;;14.67;100.00
29467;BME280;60968;37.490;-122.288;2022-08-01T11:59:02;98874.13;;;14.66;100.00
29467;BME280;60968;37.490;-122.288;2022-08-01T12:02:03;98874.03;;;14.69;100.00
29467;BME280;60968;37.490;-122.288;2022-08-01T12:05:10;98874.75;;;14.72;100.00
29467;BME280;60968;37.490;-122.288;2022-08-01T12:08:11;98877.50;;;14.69;100.00
29467;BME280;60968;37.490;-122.288;2022-08-01T12:11:12;98880.88;;;14.73;100.00
29467;BME280;60968;37.490;-122.288;2022-08-01T12:14:19;98883.56;;;14.71;100.00
29467;BME280;60968;37.490;-122.288;2022-08-01T12:17:28;98887.09;;;14.70;100.00
29467;BME280;60968;37.490;-122.288;2022-08-01T12:20:34;98886.47;;;14.62;100.00
29467;BME280;60968;37.490;-122.288;2022-08-01T12:23:35;98897.94;;;14.58;100.00
29467;BME280;60968;37.490;-122.288;2022-08-01T12:26:42;98896.47;;;14.49;100.00
29467;BME280;60968;37.490;-122.288;2022-08-01T12:29:43;98896.31;;;14.54;100.00
29467;BME280;60968;37.490;-122.288;2022-08-01T12:32:45;98895.25;;;14.59;100.00
29467;BME280;60968;37.490;-122.288;2022-08-01T12:35:47;98901.50;;;14.57;100.00
29467;BME280;60968;37.490;-122.288;2022-08-01T12:38:52;98907.69;;;14.54;100.00
29467;BME280;60968;37.490;-122.288;2022-08-01T12:41:55;98896.25;;;14.57;100.00
29467;BME280;60968;37.490;-122.288;2022-08-01T12:44:55;98895.25;;;14.59;100.00
29467;BME280;60968;37.490;-122.288;2022-08-01T12:47:58;98884.78;;;14.59;100.00
29467;BME280;60968;37.490;-122.288;2022-08-01T12:50:59;98885.59;;;14.62;100.00
29467;BME280;60968;37.490;-122.288;2022-08-01T12:54:01;98882.09;;;14.63;100.00
29467;BME280;60968;37.490;-122.288;2022-08-01T12:57:01;98884.63;;;14.66;100.00
29467;BME280;60968;37.490;-122.288;2022-08-01T13:03:19;98881.00;;;14.70;100.00
29467;BME280;60968;37.490;-122.288;2022-08-01T13:06:20;98874.81;;;14.71;100.00
29467;BME280;60968;37.490;-122.288;2022-08-01T13:09:21;98867.97;;;14.67;100.00
29467;BME280;60968;37.490;-122.288;2022-08-01T13:12:22;98865.25;;;14.70;100.00
29467;BME280;60968;37.490;-122.288;2022-08-01T13:15:27;98864.25;;;14.74;100.00
29467;BME280;60968;37.490;-122.288;2022-08-01T13:18:30;98874.59;;;14.79;100.00
29467;BME280;60968;37.490;-122.288;2022-08-01T13:21:31;98864.94;;;14.79;100.00
29467;BME280;60968;37.490;-122.288;2022-08-01T13:24:32;98865.66;;;14.84;100.00
29467;BME280;60968;37.490;-122.288;2022-08-01T13:27:33;98866.66;;;14.80;100.00
29467;BME280;60968;37.490;-122.288;2022-08-01T13:30:34;98877.16;;;14.80;100.00
29467;BME280;60968;37.490;-122.288;2022-08-01T13:33:45;98887.25;;;14.66;100.00
29467;BME280;60968;37.490;-122.288;2022-08-01T13:36:46;98892.03;;;14.80;100.00
29467;BME280;60968;37.490;-122.288;2022-08-01T13:39:47;98888.41;;;14.84;100.00
29467;BME280;60968;37.490;-122.288;2022-08-01T13:42:48;98889.03;;;14.90;100.00
29467;BME280;60968;37.490;-122.288;2022-08-01T13:45:49;98883.72;;;14.94;100.00
29467;BME280;60968;37.490;-122.288;2022-08-01T13:48:50;98882.19;;;14.86;100.00
29467;BME280;60968;37.490;-122.288;2022-08-01T13:51:51;98889.09;;;14.89;100.00
29467;BME280;60968;37.490;-122.288;2022-08-01T13:54:51;98890.31;;;14.79;100.00
29467;BME280;60968;37.490;-122.288;2022-08-01T13:57:52;98884.00;;;14.84;100.00
29467;BME280;60968;37.490;-122.288;2022-08-01T14:00:53;98882.00;;;14.92;100.00
29467;BME280;60968;37.490;-122.288;2022-08-01T14:03:54;98883.00;;;14.88;100.00
29467;BME280;60968;37.490;-122.288;2022-08-01T14:06:55;98879.66;;;14.83;100.00
29467;BME280;60968;37.490;-122.288;2022-08-01T14:09:56;98882.63;;;14.74;100.00
29467;BME280;60968;37.490;-122.288;2022-08-01T14:12:57;98883.34;;;14.78;100.00
29467;BME280;60968;37.490;-122.288;2022-08-01T14:15:58;98883.50;;;14.73;100.00
29467;BME280;60968;37.490;-122.288;2022-08-01T14:18:59;98875.31;;;14.82;100.00
29467;BME280;60968;37.490;-122.288;2022-08-01T14:22:00;98878.66;;;14.87;100.00
29467;BME280;60968;37.490;-122.288;2022-08-01T14:25:00;98877.47;;;14.96;100.00
29467;BME280;60968;37.490;-122.288;2022-08-01T14:28:01;98874.66;;;15.02;100.00
29467;BME280;60968;37.490;-122.288;2022-08-01T14:31:03;98874.25;;;15.13;100.00
29467;BME280;60968;37.490;-122.288;2022-08-01T14:34:04;98873.94;;;15.22;100.00
29467;BME280;60968;37.490;-122.288;2022-08-01T14:37:05;98875.44;;;15.30;100.00
29467;BME280;60968;37.490;-122.288;2022-08-01T14:40:06;98883.38;;;15.28;100.00
29467;BME280;60968;37.490;-122.288;2022-08-01T14:43:10;98873.59;;;15.08;100.00
29467;BME280;60968;37.490;-122.288;2022-08-01T14:46:11;98886.81;;;15.05;100.00
29467;BME280;60968;37.490;-122.288;2022-08-01T14:49:12;98884.44;;;14.97;100.00
29467;BME280;60968;37.490;-122.288;2022-08-01T14:52:13;98889.91;;;14.91;100.00
29467;BME280;60968;37.490;-122.288;2022-08-01T14:55:14;98891.66;;;14.90;100.00
29467;BME280;60968;37.490;-122.288;2022-08-01T14:58:15;98887.22;;;14.92;100.00
29467;BME280;60968;37.490;-122.288;2022-08-01T15:01:16;98892.38;;;14.96;100.00
29467;BME280;60968;37.490;-122.288;2022-08-01T15:04:17;98902.75;;;14.99;100.00
29467;BME280;60968;37.490;-122.288;2022-08-01T15:07:18;98899.97;;;15.03;100.00
29467;BME280;60968;37.490;-122.288;2022-08-01T15:10:19;98895.31;;;15.12;100.00
29467;BME280;60968;37.490;-122.288;2022-08-01T15:13:20;98897.69;;;15.19;100.00
29467;BME280;60968;37.490;-122.288;2022-08-01T15:16:26;98890.34;;;15.29;100.00
29467;BME280;60968;37.490;-122.288;2022-08-01T15:19:27;98890.59;;;15.21;100.00
29467;BME280;60968;37.490;-122.288;2022-08-01T15:22:29;98898.81;;;15.37;100.00
29467;BME280;60968;37.490;-122.288;2022-08-01T15:25:29;98910.03;;;15.41;100.00
29467;BME280;60968;37.490;-122.288;2022-08-01T15:28:30;98916.38;;;15.35;100.00
29467;BME280;60968;37.490;-122.288;2022-08-01T15:31:31;98912.38;;;15.25;100.00
29467;BME280;60968;37.490;-122.288;2022-08-01T15:34:33;98908.88;;;15.24;100.00
29467;BME280;60968;37.490;-122.288;2022-08-01T15:37:34;98911.47;;;15.26;100.00
29467;BME280;60968;37.490;-122.288;2022-08-01T15:40:35;98919.06;;;15.34;100.00
29467;BME280;60968;37.490;-122.288;2022-08-01T15:43:36;98914.69;;;15.33;100.00
29467;BME280;60968;37.490;-122.288;2022-08-01T15:46:36;98904.25;;;15.31;100.00